Kaami — C6VO9 — position and weather

sailwx.info

Track history (hours):
 
Tides and Currents Weather Stations Pressure Air Temp Water Temp Dewpoint Dewpoint Depression Visibility Wind Speed Wind Dir Waves Ship Positions

Kaami

Last reported at 2017-Jul-23 16:30 UTC. Time now 2017-Jul-23 16:38 UTC.
Position N 54°37' W 005°54'.

Length 90 m; draft 5.8 m.

Type: Cargo ship. MMSI: 308542000.

Date/timePositionNaut miles runAvg speedWind from/ knotsBaromVisibWave heightAir tempDewpointWater temp
2017-Jul-23 16:30N 54°37' W 005°54'0 0.0
2017-Jul-23 16:00N 54°37' W 005°54'0 0.0
2017-Jul-23 15:30N 54°37' W 005°54'0 0.0
2017-Jul-23 15:00N 54°37' W 005°54'0 0.0
2017-Jul-23 14:30N 54°37' W 005°54'0 0.0
2017-Jul-23 14:00N 54°37' W 005°54'0 0.0
2017-Jul-23 13:30N 54°37' W 005°54'0 0.0
2017-Jul-23 13:00N 54°37' W 005°54'0 0.0
2017-Jul-23 12:30N 54°37' W 005°54'0 0.0
2017-Jul-23 12:00N 54°37' W 005°54'0 0.0
2017-Jul-23 11:30N 54°37' W 005°54'0 0.0
2017-Jul-23 11:00N 54°37' W 005°54'0 0.0
2017-Jul-23 10:30N 54°37' W 005°54'0 0.0
2017-Jul-23 10:00N 54°37' W 005°54'0 0.0
2017-Jul-23 09:30N 54°37' W 005°54'0 0.0
2017-Jul-23 09:00N 54°37' W 005°54'0 0.0
2017-Jul-23 08:30N 54°37' W 005°54'0 0.0
2017-Jul-23 07:54N 54°37' W 005°54'0 0.0
2017-Jul-23 07:30N 54°37' W 005°54'0 0.0
2017-Jul-23 06:54N 54°37' W 005°54'0 0.0
2017-Jul-23 06:30N 54°37' W 005°54'0 0.0
2017-Jul-23 06:00N 54°37' W 005°54'0 0.0
2017-Jul-23 05:30N 54°37' W 005°54'0 0.0
2017-Jul-23 05:00N 54°37' W 005°54'0 0.0
2017-Jul-23 04:30N 54°37' W 005°54'0 0.0
2017-Jul-23 03:59N 54°37' W 005°54'0 0.0
2017-Jul-23 03:29N 54°37' W 005°54'0 0.0
2017-Jul-23 02:59N 54°37' W 005°54'0 0.0
2017-Jul-23 02:29N 54°37' W 005°54'0 0.7
2017-Jul-23 02:00N 54°38' W 005°53'3 6.8
2017-Jul-23 01:31N 54°40' W 005°50'5 9.1
2017-Jul-23 01:01N 54°42' W 005°43'4 7.4
2017-Jul-23 00:30N 54°43' W 005°37'3 6.8
2017-Jul-23 00:01N 54°43' W 005°31'3 6.5
2017-Jul-22 23:31N 54°41' W 005°27'4 7.6
2017-Jul-22 23:00N 54°37' W 005°25'4 7.8
2017-Jul-22 22:31N 54°33' W 005°24'510.5
2017-Jul-22 22:01N 54°28' W 005°23'510.1
2017-Jul-22 21:30N 54°23' W 005°21'5 9.9
2017-Jul-22 21:00N 54°18' W 005°20'510.2
2017-Jul-22 20:31N 54°13' W 005°20'510.0
2017-Jul-22 19:59N 54°08' W 005°20'510.2
2017-Jul-22 19:30N 54°03' W 005°20'510.7
2017-Jul-22 19:00N 53°58' W 005°20'203 9.9
2017-Jul-21 22:32N 50°35' W 005°51'2 9.0
2017-Jul-21 22:21N 50°33' W 005°51'3 8.8
2017-Jul-21 21:57N 50°30' W 005°51'4 8.8
2017-Jul-21 21:28N 50°26' W 005°51'4 8.4
2017-Jul-21 21:00N 50°22' W 005°51'4 8.2
2017-Jul-21 20:30N 50°18' W 005°51'40 5.3
2017-Jul-21 12:52N 49°58' W 004°57'4 7.3
2017-Jul-21 12:22N 49°59' W 004°51'3 7.4
2017-Jul-21 12:00N 49°60' W 004°47'4 7.0
2017-Jul-21 11:30N 50°01' W 004°42'3 6.3
2017-Jul-21 11:01N 50°02' W 004°37'3 6.1
2017-Jul-21 10:30N 50°02' W 004°32'3 6.1
2017-Jul-21 10:00N 50°03' W 004°28'3 6.6
2017-Jul-21 09:30N 50°03' W 004°23'3 6.6
2017-Jul-21 09:00N 50°04' W 004°18'3 6.8
2017-Jul-21 08:31N 50°04' W 004°12'3 6.6
2017-Jul-21 08:01N 50°05' W 004°07'3 6.3
2017-Jul-21 07:31N 50°05' W 004°03'3 6.3
2017-Jul-21 07:00N 50°06' W 003°58'3 5.9
2017-Jul-21 06:31N 50°07' W 003°53'3 5.6
2017-Jul-21 06:01N 50°08' W 003°49'3 5.5
2017-Jul-21 05:31N 50°08' W 003°45'3 5.1
2017-Jul-21 05:00N 50°09' W 003°41'2 4.7
2017-Jul-21 04:30N 50°10' W 003°38'2 4.8
2017-Jul-21 04:01N 50°10' W 003°34'3 5.0
2017-Jul-21 03:31N 50°11' W 003°30'3 5.8
2017-Jul-21 03:01N 50°12' W 003°26'3 5.2
2017-Jul-21 02:30N 50°12' W 003°22'3 6.0
2017-Jul-21 02:01N 50°13' W 003°17'3 7.0
2017-Jul-21 01:31N 50°14' W 003°12'4 7.7
2017-Jul-21 01:01N 50°14' W 003°06'4 8.7
2017-Jul-21 00:31N 50°15' W 002°59'5 9.5
2017-Jul-21 00:00N 50°16' W 002°52'510.1
2017-Jul-20 23:30N 50°17' W 002°44'510.8
2017-Jul-20 23:01N 50°18' W 002°36'83 7.7
2017-Jul-20 12:21N 50°29' W 000°28'3 9.4
2017-Jul-20 11:59N 50°30' W 000°22'5 9.7
2017-Jul-20 11:30N 50°31' W 000°15'5 9.7
2017-Jul-20 10:59N 50°32' W 000°07'5 9.7
2017-Jul-20 10:31N 50°33' W 000°00'5 9.7
2017-Jul-20 10:01N 50°34' E 000°07'5 9.6
2017-Jul-20 09:30N 50°35' E 000°14'5 9.6
2017-Jul-20 08:59N 50°37' E 000°22'4 9.5
2017-Jul-20 08:31N 50°38' E 000°29'5 9.2
2017-Jul-20 08:01N 50°39' E 000°36'4 8.7
2017-Jul-20 07:31N 50°42' E 000°41'4 8.5
2017-Jul-20 07:00N 50°44' E 000°47'18 8.9
2017-Jul-20 04:57N 50°55' E 001°10'510.1
2017-Jul-20 04:30N 50°58' E 001°15'611.1
2017-Jul-20 04:01N 51°02' E 001°22'611.7
2017-Jul-20 03:31N 51°06' E 001°29'611.6
2017-Jul-20 03:00N 51°09' E 001°36'510.1
2017-Jul-20 02:30N 51°14' E 001°38'510.8
2017-Jul-20 02:01N 51°20' E 001°36'510.8
2017-Jul-20 01:30N 51°25' E 001°32'510.5
2017-Jul-20 01:00N 51°28' E 001°26'611.4
2017-Jul-20 00:28N 51°29' E 001°16'511.5
2017-Jul-20 00:00N 51°29' E 001°08'611.2
2017-Jul-19 23:30N 51°29' E 000°59'811.6
2017-Jul-19 22:50N 51°29' E 000°46'411.8
2017-Jul-19 22:31N 51°30' E 000°40'611.8
2017-Jul-19 22:00N 51°30' E 000°31'5 9.8
2017-Jul-19 21:31N 51°27' E 000°24'3 5.9
2017-Jul-19 21:01N 51°28' E 000°20'0 0.1
2017-Jul-19 20:31N 51°28' E 000°20'0 0.0
2017-Jul-19 20:01N 51°28' E 000°20'0 0.0
2017-Jul-19 19:31N 51°28' E 000°20'0 0.0
2017-Jul-19 19:01N 51°28' E 000°20'0 0.0
2017-Jul-19 18:31N 51°28' E 000°20'0 0.0
2017-Jul-19 18:01N 51°28' E 000°20'0 0.0
2017-Jul-19 17:31N 51°28' E 000°20'0 0.0
2017-Jul-19 17:01N 51°28' E 000°20'0 0.0
2017-Jul-19 16:31N 51°28' E 000°20'0 0.0
2017-Jul-19 16:01N 51°28' E 000°20'0 0.0
2017-Jul-19 15:31N 51°28' E 000°20'0 0.0
2017-Jul-19 15:01N 51°28' E 000°20'0 0.0
2017-Jul-19 14:31N 51°28' E 000°20'0 0.0
2017-Jul-19 14:01N 51°28' E 000°20'0 0.0
2017-Jul-19 13:31N 51°28' E 000°20'0 0.0
2017-Jul-19 13:01N 51°28' E 000°20'0 0.0
2017-Jul-19 12:31N 51°28' E 000°20'0 0.0
2017-Jul-19 12:01N 51°28' E 000°20'0 0.0
2017-Jul-19 11:31N 51°28' E 000°20'0 0.0
2017-Jul-19 11:01N 51°28' E 000°20'0 0.0
2017-Jul-19 10:31N 51°28' E 000°20'0 0.0
2017-Jul-19 10:01N 51°28' E 000°20'0 0.0
2017-Jul-19 09:31N 51°28' E 000°20'0 0.0
2017-Jul-19 09:01N 51°28' E 000°20'0 0.0
2017-Jul-19 08:31N 51°28' E 000°20'0 0.0
2017-Jul-19 08:01N 51°28' E 000°20'1 2.1
2017-Jul-19 07:31N 51°27' E 000°21'5 9.3
2017-Jul-19 07:01N 51°29' E 000°28'611.4
2017-Jul-19 06:30N 51°30' E 000°36'612.6
2017-Jul-19 06:01N 51°30' E 000°47'612.6
2017-Jul-19 05:30N 51°31' E 000°57'4 7.6
2017-Jul-19 05:00N 51°32' E 001°02'4 7.0
2017-Jul-19 04:30N 51°34' E 001°07'3 7.1
2017-Jul-19 04:00N 51°36' E 001°12'3 6.9
2017-Jul-19 03:30N 51°39' E 001°15'3 6.8
2017-Jul-19 03:00N 51°41' E 001°19'3 6.8
2017-Jul-19 02:31N 51°43' E 001°23'3 6.9
2017-Jul-19 02:01N 51°46' E 001°27'3 6.9
2017-Jul-19 01:31N 51°49' E 001°29'3 6.1
2017-Jul-19 01:01N 51°52' E 001°28'4 8.5
2017-Jul-19 00:31N 51°56' E 001°25'4 8.8
2017-Jul-19 00:01N 51°57' E 001°18'4 8.0
2017-Jul-18 23:30N 51°60' E 001°13'3 5.9
2017-Jul-18 22:59N 52°02' E 001°10'0 0.0
2017-Jul-18 22:29N 52°02' E 001°10'0 0.0
2017-Jul-18 21:59N 52°02' E 001°10'0 0.0
2017-Jul-18 21:29N 52°02' E 001°10'0 0.0
2017-Jul-18 20:59N 52°02' E 001°10'0 0.0
2017-Jul-18 20:29N 52°02' E 001°10'0 0.0
2017-Jul-18 19:59N 52°02' E 001°10'0 0.0
2017-Jul-18 19:29N 52°02' E 001°10'0 0.0
2017-Jul-18 18:59N 52°02' E 001°10'0 0.0
2017-Jul-18 18:29N 52°02' E 001°10'0 0.0
2017-Jul-18 17:59N 52°02' E 001°10'0 0.0
2017-Jul-18 17:29N 52°02' E 001°10'0 0.0
2017-Jul-18 16:59N 52°02' E 001°10'0 0.0
2017-Jul-18 16:29N 52°02' E 001°10'0 0.0
2017-Jul-18 15:59N 52°02' E 001°10'0 0.0
2017-Jul-18 15:29N 52°02' E 001°10'0 0.0
2017-Jul-18 14:59N 52°02' E 001°10'0 0.0
2017-Jul-18 13:59N 52°02' E 001°10'0 0.0
2017-Jul-18 13:29N 52°02' E 001°10'0 0.0
2017-Jul-18 12:59N 52°02' E 001°10'0 0.0
2017-Jul-18 12:29N 52°02' E 001°10'0 0.0
2017-Jul-18 11:59N 52°02' E 001°10'0 0.0
2017-Jul-18 11:29N 52°02' E 001°10'0 0.0
2017-Jul-18 10:59N 52°02' E 001°10'0 0.0
2017-Jul-18 10:29N 52°02' E 001°10'0 0.0
2017-Jul-18 09:59N 52°02' E 001°10'0 0.0
2017-Jul-18 09:29N 52°02' E 001°10'0 0.0
2017-Jul-18 08:59N 52°02' E 001°10'0 0.0
2017-Jul-18 08:29N 52°02' E 001°10'0 0.0
2017-Jul-18 07:59N 52°02' E 001°10'0 0.0
2017-Jul-18 07:29N 52°02' E 001°10'0 0.0
2017-Jul-18 06:59N 52°02' E 001°10'0 0.0
2017-Jul-18 06:29N 52°02' E 001°10'0 0.0
2017-Jul-18 05:59N 52°02' E 001°10'0 0.0
2017-Jul-18 05:29N 52°02' E 001°10'0 0.0
2017-Jul-18 04:59N 52°02' E 001°10'0 0.0
2017-Jul-18 04:29N 52°02' E 001°10'0 0.0
2017-Jul-18 03:59N 52°02' E 001°10'0 0.0
2017-Jul-18 03:29N 52°02' E 001°10'0 0.0
2017-Jul-18 02:59N 52°02' E 001°10'0 0.0
2017-Jul-18 02:29N 52°02' E 001°10'0 0.0
2017-Jul-18 01:59N 52°02' E 001°10'0 0.0
2017-Jul-18 01:29N 52°02' E 001°10'0 0.0
2017-Jul-18 00:58N 52°02' E 001°10'0 0.0
2017-Jul-18 00:28N 52°02' E 001°10'0 0.0
2017-Jul-17 23:58N 52°02' E 001°10'0 0.0
2017-Jul-17 23:28N 52°02' E 001°10'0 0.0
2017-Jul-17 22:58N 52°02' E 001°10'0 0.0
2017-Jul-17 22:28N 52°02' E 001°10'0 0.0
2017-Jul-17 21:58N 52°02' E 001°10'0 0.0
2017-Jul-17 21:28N 52°02' E 001°10'0 0.0
2017-Jul-17 20:58N 52°02' E 001°10'0 0.0
2017-Jul-17 20:28N 52°02' E 001°10'0 0.0
2017-Jul-17 19:58N 52°02' E 001°10'0 0.0
2017-Jul-17 19:28N 52°02' E 001°10'0 0.0
2017-Jul-17 18:58N 52°02' E 001°10'0 0.0
2017-Jul-17 18:28N 52°02' E 001°10'0 0.0
2017-Jul-17 17:58N 52°02' E 001°10'0 0.0
2017-Jul-17 17:28N 52°02' E 001°10'0 0.0
2017-Jul-17 16:59N 52°02' E 001°10'0 0.0
2017-Jul-17 16:28N 52°02' E 001°10'0 0.0
2017-Jul-17 15:58N 52°02' E 001°10'0 0.0
2017-Jul-17 15:28N 52°02' E 001°10'0 0.0
2017-Jul-17 14:58N 52°02' E 001°10'0 0.0
2017-Jul-17 14:28N 52°02' E 001°10'0 0.0
2017-Jul-17 13:58N 52°02' E 001°10'0 0.0
2017-Jul-17 13:28N 52°02' E 001°10'0 0.0
2017-Jul-17 12:58N 52°02' E 001°10'0 0.0
2017-Jul-17 12:28N 52°02' E 001°10'15 1.1
2017-Jul-16 23:16N 51°58' E 001°33'270 9.1
2017-Jul-15 17:31N 55°32' E 006°10'1 9.7
2017-Jul-15 17:26N 55°33' E 006°11'4 9.8
2017-Jul-15 16:59N 55°36' E 006°16'5 9.8
2017-Jul-15 16:30N 55°40' E 006°21'5 9.8
2017-Jul-15 16:00N 55°44' E 006°26'14210.0
2017-Jul-15 01:43N 57°38' E 009°01'3 9.5
2017-Jul-15 01:25N 57°40' E 009°04'5 9.6
2017-Jul-15 00:54N 57°44' E 009°10'9 9.8
2017-Jul-15 00:00N 57°51' E 009°19'14 9.5
2017-Jul-14 22:33N 58°02' E 009°36'0 9.6
2017-Jul-14 22:30N 58°02' E 009°37'5 9.7
2017-Jul-14 21:57N 58°07' E 009°44'6 9.8
2017-Jul-14 21:19N 58°11' E 009°51'3 9.7
2017-Jul-14 21:00N 58°14' E 009°55'5 9.6
2017-Jul-14 20:30N 58°17' E 010°00'5 9.6
2017-Jul-14 19:59N 58°21' E 010°06'5 9.7
2017-Jul-14 19:30N 58°26' E 010°09'6 9.6
2017-Jul-14 18:51N 58°32' E 010°14'4 9.7
2017-Jul-14 18:28N 58°35' E 010°17'4 9.8
2017-Jul-14 18:00N 58°39' E 010°20'5 9.9
2017-Jul-14 17:30N 58°43' E 010°25'510.0
2017-Jul-14 16:59N 58°48' E 010°30'5 9.9
2017-Jul-14 16:30N 58°52' E 010°34'510.2
2017-Jul-14 16:00N 58°57' E 010°39'5 9.9
2017-Jul-14 15:30N 59°01' E 010°44'5 9.1
2017-Jul-14 15:00N 59°02' E 010°52'3 6.9
2017-Jul-14 14:30N 59°03' E 010°58'510.5
2017-Jul-14 14:00N 59°09' E 010°58'3 6.0
2017-Jul-14 13:31N 59°11' E 010°57'0 0.0
2017-Jul-14 13:00N 59°11' E 010°57'0 0.0
2017-Jul-14 12:30N 59°11' E 010°57'0 0.0
2017-Jul-14 12:00N 59°11' E 010°57'0 0.0
2017-Jul-14 11:30N 59°11' E 010°57'0 0.0
2017-Jul-14 11:00N 59°11' E 010°57'0 0.0
2017-Jul-14 10:30N 59°11' E 010°57'0 0.0
2017-Jul-14 10:00N 59°11' E 010°57'0 0.0
2017-Jul-14 09:30N 59°11' E 010°57'0 0.0
2017-Jul-14 09:00N 59°11' E 010°57'0 0.0
2017-Jul-14 08:30N 59°11' E 010°57'0 0.0
2017-Jul-14 08:00N 59°11' E 010°57'0 0.0
2017-Jul-14 07:30N 59°11' E 010°57'0 0.0
2017-Jul-14 07:00N 59°11' E 010°57'0 0.0
2017-Jul-14 06:30N 59°11' E 010°57'0 0.0
2017-Jul-14 06:00N 59°11' E 010°57'0 0.0
2017-Jul-14 05:30N 59°11' E 010°57'0 0.0
2017-Jul-14 05:00N 59°11' E 010°57'0 0.0
2017-Jul-14 04:30N 59°11' E 010°57'0 0.0
2017-Jul-14 04:00N 59°11' E 010°57'0 0.0
2017-Jul-14 03:30N 59°11' E 010°57'0 0.0
2017-Jul-14 03:00N 59°11' E 010°57'0 0.0
2017-Jul-14 02:30N 59°11' E 010°57'0 0.0
2017-Jul-14 02:00N 59°11' E 010°57'0 0.0
2017-Jul-14 01:30N 59°11' E 010°57'0 0.0
2017-Jul-14 01:00N 59°11' E 010°57'0 0.0
2017-Jul-14 00:30N 59°11' E 010°57'0 0.0
2017-Jul-14 00:00N 59°11' E 010°57'0 0.0
2017-Jul-13 23:30N 59°11' E 010°57'0 0.0
2017-Jul-13 23:00N 59°11' E 010°57'0 0.0
2017-Jul-13 22:30N 59°11' E 010°57'0 0.0
2017-Jul-13 22:00N 59°11' E 010°57'0 0.0
2017-Jul-13 21:30N 59°11' E 010°57'0 0.0
2017-Jul-13 21:00N 59°11' E 010°57'0 0.0
2017-Jul-13 20:30N 59°11' E 010°57'0 0.0
2017-Jul-13 20:00N 59°11' E 010°57'0 0.0
2017-Jul-13 19:30N 59°11' E 010°57'0 0.0
2017-Jul-13 19:00N 59°11' E 010°57'0 0.0
2017-Jul-13 18:30N 59°11' E 010°57'0 0.0
2017-Jul-13 18:00N 59°11' E 010°57'0 0.0
2017-Jul-13 17:30N 59°11' E 010°57'0 0.0
2017-Jul-13 17:00N 59°11' E 010°57'  
Track history (hours):
 
Tides and Currents Weather Stations Pressure Air Temp Water Temp Dewpoint Dewpoint Depression Visibility Wind Speed Wind Dir Waves Ship Positions

Kaami

Last reported at 2017-Jul-23 16:30 UTC. Time now 2017-Jul-23 16:38 UTC.
Position N 54°37' W 005°54'.

Length 90 m; draft 5.8 m.

Type: Cargo ship. MMSI: 308542000.

Date/timePositionNaut miles runAvg speedWind from/ knotsBaromVisibWave heightAir tempDewpointWater temp
2017-Jul-23 16:30N 54°37' W 005°54'0 0.0
2017-Jul-23 16:00N 54°37' W 005°54'0 0.0
2017-Jul-23 15:30N 54°37' W 005°54'0 0.0
2017-Jul-23 15:00N 54°37' W 005°54'0 0.0
2017-Jul-23 14:30N 54°37' W 005°54'0 0.0
2017-Jul-23 14:00N 54°37' W 005°54'0 0.0
2017-Jul-23 13:30N 54°37' W 005°54'0 0.0
2017-Jul-23 13:00N 54°37' W 005°54'0 0.0
2017-Jul-23 12:30N 54°37' W 005°54'0 0.0
2017-Jul-23 12:00N 54°37' W 005°54'0 0.0
2017-Jul-23 11:30N 54°37' W 005°54'0 0.0
2017-Jul-23 11:00N 54°37' W 005°54'0 0.0
2017-Jul-23 10:30N 54°37' W 005°54'0 0.0
2017-Jul-23 10:00N 54°37' W 005°54'0 0.0
2017-Jul-23 09:30N 54°37' W 005°54'0 0.0
2017-Jul-23 09:00N 54°37' W 005°54'0 0.0
2017-Jul-23 08:30N 54°37' W 005°54'0 0.0
2017-Jul-23 07:54N 54°37' W 005°54'0 0.0
2017-Jul-23 07:30N 54°37' W 005°54'0 0.0
2017-Jul-23 06:54N 54°37' W 005°54'0 0.0
2017-Jul-23 06:30N 54°37' W 005°54'0 0.0
2017-Jul-23 06:00N 54°37' W 005°54'0 0.0
2017-Jul-23 05:30N 54°37' W 005°54'0 0.0
2017-Jul-23 05:00N 54°37' W 005°54'0 0.0
2017-Jul-23 04:30N 54°37' W 005°54'0 0.0
2017-Jul-23 03:59N 54°37' W 005°54'0 0.0
2017-Jul-23 03:29N 54°37' W 005°54'0 0.0
2017-Jul-23 02:59N 54°37' W 005°54'0 0.0
2017-Jul-23 02:29N 54°37' W 005°54'0 0.7
2017-Jul-23 02:00N 54°38' W 005°53'3 6.8
2017-Jul-23 01:31N 54°40' W 005°50'5 9.1
2017-Jul-23 01:01N 54°42' W 005°43'4 7.4
2017-Jul-23 00:30N 54°43' W 005°37'3 6.8
2017-Jul-23 00:01N 54°43' W 005°31'3 6.5
2017-Jul-22 23:31N 54°41' W 005°27'4 7.6
2017-Jul-22 23:00N 54°37' W 005°25'4 7.8
2017-Jul-22 22:31N 54°33' W 005°24'510.5
2017-Jul-22 22:01N 54°28' W 005°23'510.1
2017-Jul-22 21:30N 54°23' W 005°21'5 9.9
2017-Jul-22 21:00N 54°18' W 005°20'510.2
2017-Jul-22 20:31N 54°13' W 005°20'510.0
2017-Jul-22 19:59N 54°08' W 005°20'510.2
2017-Jul-22 19:30N 54°03' W 005°20'510.7
2017-Jul-22 19:00N 53°58' W 005°20'203 9.9
2017-Jul-21 22:32N 50°35' W 005°51'2 9.0
2017-Jul-21 22:21N 50°33' W 005°51'3 8.8
2017-Jul-21 21:57N 50°30' W 005°51'4 8.8
2017-Jul-21 21:28N 50°26' W 005°51'4 8.4
2017-Jul-21 21:00N 50°22' W 005°51'4 8.2
2017-Jul-21 20:30N 50°18' W 005°51'40 5.3
2017-Jul-21 12:52N 49°58' W 004°57'4 7.3
2017-Jul-21 12:22N 49°59' W 004°51'3 7.4
2017-Jul-21 12:00N 49°60' W 004°47'4 7.0
2017-Jul-21 11:30N 50°01' W 004°42'3 6.3
2017-Jul-21 11:01N 50°02' W 004°37'3 6.1
2017-Jul-21 10:30N 50°02' W 004°32'3 6.1
2017-Jul-21 10:00N 50°03' W 004°28'3 6.6
2017-Jul-21 09:30N 50°03' W 004°23'3 6.6
2017-Jul-21 09:00N 50°04' W 004°18'3 6.8
2017-Jul-21 08:31N 50°04' W 004°12'3 6.6
2017-Jul-21 08:01N 50°05' W 004°07'3 6.3
2017-Jul-21 07:31N 50°05' W 004°03'3 6.3
2017-Jul-21 07:00N 50°06' W 003°58'3 5.9
2017-Jul-21 06:31N 50°07' W 003°53'3 5.6
2017-Jul-21 06:01N 50°08' W 003°49'3 5.5
2017-Jul-21 05:31N 50°08' W 003°45'3 5.1
2017-Jul-21 05:00N 50°09' W 003°41'2 4.7
2017-Jul-21 04:30N 50°10' W 003°38'2 4.8
2017-Jul-21 04:01N 50°10' W 003°34'3 5.0
2017-Jul-21 03:31N 50°11' W 003°30'3 5.8
2017-Jul-21 03:01N 50°12' W 003°26'3 5.2
2017-Jul-21 02:30N 50°12' W 003°22'3 6.0
2017-Jul-21 02:01N 50°13' W 003°17'3 7.0
2017-Jul-21 01:31N 50°14' W 003°12'4 7.7
2017-Jul-21 01:01N 50°14' W 003°06'4 8.7
2017-Jul-21 00:31N 50°15' W 002°59'5 9.5
2017-Jul-21 00:00N 50°16' W 002°52'510.1
2017-Jul-20 23:30N 50°17' W 002°44'510.8
2017-Jul-20 23:01N 50°18' W 002°36'83 7.7
2017-Jul-20 12:21N 50°29' W 000°28'3 9.4
2017-Jul-20 11:59N 50°30' W 000°22'5 9.7
2017-Jul-20 11:30N 50°31' W 000°15'5 9.7
2017-Jul-20 10:59N 50°32' W 000°07'5 9.7
2017-Jul-20 10:31N 50°33' W 000°00'5 9.7
2017-Jul-20 10:01N 50°34' E 000°07'5 9.6
2017-Jul-20 09:30N 50°35' E 000°14'5 9.6
2017-Jul-20 08:59N 50°37' E 000°22'4 9.5
2017-Jul-20 08:31N 50°38' E 000°29'5 9.2
2017-Jul-20 08:01N 50°39' E 000°36'4 8.7
2017-Jul-20 07:31N 50°42' E 000°41'4 8.5
2017-Jul-20 07:00N 50°44' E 000°47'18 8.9
2017-Jul-20 04:57N 50°55' E 001°10'510.1
2017-Jul-20 04:30N 50°58' E 001°15'611.1
2017-Jul-20 04:01N 51°02' E 001°22'611.7
2017-Jul-20 03:31N 51°06' E 001°29'611.6
2017-Jul-20 03:00N 51°09' E 001°36'510.1
2017-Jul-20 02:30N 51°14' E 001°38'510.8
2017-Jul-20 02:01N 51°20' E 001°36'510.8
2017-Jul-20 01:30N 51°25' E 001°32'510.5
2017-Jul-20 01:00N 51°28' E 001°26'611.4
2017-Jul-20 00:28N 51°29' E 001°16'511.5
2017-Jul-20 00:00N 51°29' E 001°08'611.2
2017-Jul-19 23:30N 51°29' E 000°59'811.6
2017-Jul-19 22:50N 51°29' E 000°46'411.8
2017-Jul-19 22:31N 51°30' E 000°40'611.8
2017-Jul-19 22:00N 51°30' E 000°31'5 9.8
2017-Jul-19 21:31N 51°27' E 000°24'3 5.9
2017-Jul-19 21:01N 51°28' E 000°20'0 0.1
2017-Jul-19 20:31N 51°28' E 000°20'0 0.0
2017-Jul-19 20:01N 51°28' E 000°20'0 0.0
2017-Jul-19 19:31N 51°28' E 000°20'0 0.0
2017-Jul-19 19:01N 51°28' E 000°20'0 0.0
2017-Jul-19 18:31N 51°28' E 000°20'0 0.0
2017-Jul-19 18:01N 51°28' E 000°20'0 0.0
2017-Jul-19 17:31N 51°28' E 000°20'0 0.0
2017-Jul-19 17:01N 51°28' E 000°20'0 0.0
2017-Jul-19 16:31N 51°28' E 000°20'0 0.0
2017-Jul-19 16:01N 51°28' E 000°20'0 0.0
2017-Jul-19 15:31N 51°28' E 000°20'0 0.0
2017-Jul-19 15:01N 51°28' E 000°20'0 0.0
2017-Jul-19 14:31N 51°28' E 000°20'0 0.0
2017-Jul-19 14:01N 51°28' E 000°20'0 0.0
2017-Jul-19 13:31N 51°28' E 000°20'0 0.0
2017-Jul-19 13:01N 51°28' E 000°20'0 0.0
2017-Jul-19 12:31N 51°28' E 000°20'0 0.0
2017-Jul-19 12:01N 51°28' E 000°20'0 0.0
2017-Jul-19 11:31N 51°28' E 000°20'0 0.0
2017-Jul-19 11:01N 51°28' E 000°20'0 0.0
2017-Jul-19 10:31N 51°28' E 000°20'0 0.0
2017-Jul-19 10:01N 51°28' E 000°20'0 0.0
2017-Jul-19 09:31N 51°28' E 000°20'0 0.0
2017-Jul-19 09:01N 51°28' E 000°20'0 0.0
2017-Jul-19 08:31N 51°28' E 000°20'0 0.0
2017-Jul-19 08:01N 51°28' E 000°20'1 2.1
2017-Jul-19 07:31N 51°27' E 000°21'5 9.3
2017-Jul-19 07:01N 51°29' E 000°28'611.4
2017-Jul-19 06:30N 51°30' E 000°36'612.6
2017-Jul-19 06:01N 51°30' E 000°47'612.6
2017-Jul-19 05:30N 51°31' E 000°57'4 7.6
2017-Jul-19 05:00N 51°32' E 001°02'4 7.0
2017-Jul-19 04:30N 51°34' E 001°07'3 7.1
2017-Jul-19 04:00N 51°36' E 001°12'3 6.9
2017-Jul-19 03:30N 51°39' E 001°15'3 6.8
2017-Jul-19 03:00N 51°41' E 001°19'3 6.8
2017-Jul-19 02:31N 51°43' E 001°23'3 6.9
2017-Jul-19 02:01N 51°46' E 001°27'3 6.9
2017-Jul-19 01:31N 51°49' E 001°29'3 6.1
2017-Jul-19 01:01N 51°52' E 001°28'4 8.5
2017-Jul-19 00:31N 51°56' E 001°25'4 8.8
2017-Jul-19 00:01N 51°57' E 001°18'4 8.0
2017-Jul-18 23:30N 51°60' E 001°13'3 5.9
2017-Jul-18 22:59N 52°02' E 001°10'0 0.0
2017-Jul-18 22:29N 52°02' E 001°10'0 0.0
2017-Jul-18 21:59N 52°02' E 001°10'0 0.0
2017-Jul-18 21:29N 52°02' E 001°10'0 0.0
2017-Jul-18 20:59N 52°02' E 001°10'0 0.0
2017-Jul-18 20:29N 52°02' E 001°10'0 0.0
2017-Jul-18 19:59N 52°02' E 001°10'0 0.0
2017-Jul-18 19:29N 52°02' E 001°10'0 0.0
2017-Jul-18 18:59N 52°02' E 001°10'0 0.0
2017-Jul-18 18:29N 52°02' E 001°10'0 0.0
2017-Jul-18 17:59N 52°02' E 001°10'0 0.0
2017-Jul-18 17:29N 52°02' E 001°10'0 0.0
2017-Jul-18 16:59N 52°02' E 001°10'0 0.0
2017-Jul-18 16:29N 52°02' E 001°10'0 0.0
2017-Jul-18 15:59N 52°02' E 001°10'0 0.0
2017-Jul-18 15:29N 52°02' E 001°10'0 0.0
2017-Jul-18 14:59N 52°02' E 001°10'0 0.0
2017-Jul-18 13:59N 52°02' E 001°10'0 0.0
2017-Jul-18 13:29N 52°02' E 001°10'0 0.0
2017-Jul-18 12:59N 52°02' E 001°10'0 0.0
2017-Jul-18 12:29N 52°02' E 001°10'0 0.0
2017-Jul-18 11:59N 52°02' E 001°10'0 0.0
2017-Jul-18 11:29N 52°02' E 001°10'0 0.0
2017-Jul-18 10:59N 52°02' E 001°10'0 0.0
2017-Jul-18 10:29N 52°02' E 001°10'0 0.0
2017-Jul-18 09:59N 52°02' E 001°10'0 0.0
2017-Jul-18 09:29N 52°02' E 001°10'0 0.0
2017-Jul-18 08:59N 52°02' E 001°10'0 0.0
2017-Jul-18 08:29N 52°02' E 001°10'0 0.0
2017-Jul-18 07:59N 52°02' E 001°10'0 0.0
2017-Jul-18 07:29N 52°02' E 001°10'0 0.0
2017-Jul-18 06:59N 52°02' E 001°10'0 0.0
2017-Jul-18 06:29N 52°02' E 001°10'0 0.0
2017-Jul-18 05:59N 52°02' E 001°10'0 0.0
2017-Jul-18 05:29N 52°02' E 001°10'0 0.0
2017-Jul-18 04:59N 52°02' E 001°10'0 0.0
2017-Jul-18 04:29N 52°02' E 001°10'0 0.0
2017-Jul-18 03:59N 52°02' E 001°10'0 0.0
2017-Jul-18 03:29N 52°02' E 001°10'0 0.0
2017-Jul-18 02:59N 52°02' E 001°10'0 0.0
2017-Jul-18 02:29N 52°02' E 001°10'0 0.0
2017-Jul-18 01:59N 52°02' E 001°10'0 0.0
2017-Jul-18 01:29N 52°02' E 001°10'0 0.0
2017-Jul-18 00:58N 52°02' E 001°10'0 0.0
2017-Jul-18 00:28N 52°02' E 001°10'0 0.0
2017-Jul-17 23:58N 52°02' E 001°10'0 0.0
2017-Jul-17 23:28N 52°02' E 001°10'0 0.0
2017-Jul-17 22:58N 52°02' E 001°10'0 0.0
2017-Jul-17 22:28N 52°02' E 001°10'0 0.0
2017-Jul-17 21:58N 52°02' E 001°10'0 0.0
2017-Jul-17 21:28N 52°02' E 001°10'0 0.0
2017-Jul-17 20:58N 52°02' E 001°10'0 0.0
2017-Jul-17 20:28N 52°02' E 001°10'0 0.0
2017-Jul-17 19:58N 52°02' E 001°10'0 0.0
2017-Jul-17 19:28N 52°02' E 001°10'0 0.0
2017-Jul-17 18:58N 52°02' E 001°10'0 0.0
2017-Jul-17 18:28N 52°02' E 001°10'0 0.0
2017-Jul-17 17:58N 52°02' E 001°10'0 0.0
2017-Jul-17 17:28N 52°02' E 001°10'0 0.0
2017-Jul-17 16:59N 52°02' E 001°10'0 0.0
2017-Jul-17 16:28N 52°02' E 001°10'0 0.0
2017-Jul-17 15:58N 52°02' E 001°10'0 0.0
2017-Jul-17 15:28N 52°02' E 001°10'0 0.0
2017-Jul-17 14:58N 52°02' E 001°10'0 0.0
2017-Jul-17 14:28N 52°02' E 001°10'0 0.0
2017-Jul-17 13:58N 52°02' E 001°10'0 0.0
2017-Jul-17 13:28N 52°02' E 001°10'0 0.0
2017-Jul-17 12:58N 52°02' E 001°10'0 0.0
2017-Jul-17 12:28N 52°02' E 001°10'15 1.1
2017-Jul-16 23:16N 51°58' E 001°33'270 9.1
2017-Jul-15 17:31N 55°32' E 006°10'1 9.7
2017-Jul-15 17:26N 55°33' E 006°11'4 9.8
2017-Jul-15 16:59N 55°36' E 006°16'5 9.8
2017-Jul-15 16:30N 55°40' E 006°21'5 9.8
2017-Jul-15 16:00N 55°44' E 006°26'14210.0
2017-Jul-15 01:43N 57°38' E 009°01'3 9.5
2017-Jul-15 01:25N 57°40' E 009°04'5 9.6
2017-Jul-15 00:54N 57°44' E 009°10'9 9.8
2017-Jul-15 00:00N 57°51' E 009°19'14 9.5
2017-Jul-14 22:33N 58°02' E 009°36'0 9.6
2017-Jul-14 22:30N 58°02' E 009°37'5 9.7
2017-Jul-14 21:57N 58°07' E 009°44'6 9.8
2017-Jul-14 21:19N 58°11' E 009°51'3 9.7
2017-Jul-14 21:00N 58°14' E 009°55'5 9.6
2017-Jul-14 20:30N 58°17' E 010°00'5 9.6
2017-Jul-14 19:59N 58°21' E 010°06'5 9.7
2017-Jul-14 19:30N 58°26' E 010°09'6 9.6
2017-Jul-14 18:51N 58°32' E 010°14'4 9.7
2017-Jul-14 18:28N 58°35' E 010°17'4 9.8
2017-Jul-14 18:00N 58°39' E 010°20'5 9.9
2017-Jul-14 17:30N 58°43' E 010°25'510.0
2017-Jul-14 16:59N 58°48' E 010°30'5 9.9
2017-Jul-14 16:30N 58°52' E 010°34'510.2
2017-Jul-14 16:00N 58°57' E 010°39'5 9.9
2017-Jul-14 15:30N 59°01' E 010°44'5 9.1
2017-Jul-14 15:00N 59°02' E 010°52'3 6.9
2017-Jul-14 14:30N 59°03' E 010°58'510.5
2017-Jul-14 14:00N 59°09' E 010°58'3 6.0
2017-Jul-14 13:31N 59°11' E 010°57'0 0.0
2017-Jul-14 13:00N 59°11' E 010°57'0 0.0
2017-Jul-14 12:30N 59°11' E 010°57'0 0.0
2017-Jul-14 12:00N 59°11' E 010°57'0 0.0
2017-Jul-14 11:30N 59°11' E 010°57'0 0.0
2017-Jul-14 11:00N 59°11' E 010°57'0 0.0
2017-Jul-14 10:30N 59°11' E 010°57'0 0.0
2017-Jul-14 10:00N 59°11' E 010°57'0 0.0
2017-Jul-14 09:30N 59°11' E 010°57'0 0.0
2017-Jul-14 09:00N 59°11' E 010°57'0 0.0
2017-Jul-14 08:30N 59°11' E 010°57'0 0.0
2017-Jul-14 08:00N 59°11' E 010°57'0 0.0
2017-Jul-14 07:30N 59°11' E 010°57'0 0.0
2017-Jul-14 07:00N 59°11' E 010°57'0 0.0
2017-Jul-14 06:30N 59°11' E 010°57'0 0.0
2017-Jul-14 06:00N 59°11' E 010°57'0 0.0
2017-Jul-14 05:30N 59°11' E 010°57'0 0.0
2017-Jul-14 05:00N 59°11' E 010°57'0 0.0
2017-Jul-14 04:30N 59°11' E 010°57'0 0.0
2017-Jul-14 04:00N 59°11' E 010°57'0 0.0
2017-Jul-14 03:30N 59°11' E 010°57'0 0.0
2017-Jul-14 03:00N 59°11' E 010°57'0 0.0
2017-Jul-14 02:30N 59°11' E 010°57'0 0.0
2017-Jul-14 02:00N 59°11' E 010°57'0 0.0
2017-Jul-14 01:30N 59°11' E 010°57'0 0.0
2017-Jul-14 01:00N 59°11' E 010°57'0 0.0
2017-Jul-14 00:30N 59°11' E 010°57'0 0.0
2017-Jul-14 00:00N 59°11' E 010°57'0 0.0
2017-Jul-13 23:30N 59°11' E 010°57'0 0.0
2017-Jul-13 23:00N 59°11' E 010°57'0 0.0
2017-Jul-13 22:30N 59°11' E 010°57'0 0.0
2017-Jul-13 22:00N 59°11' E 010°57'0 0.0
2017-Jul-13 21:30N 59°11' E 010°57'0 0.0
2017-Jul-13 21:00N 59°11' E 010°57'0 0.0
2017-Jul-13 20:30N 59°11' E 010°57'0 0.0
2017-Jul-13 20:00N 59°11' E 010°57'0 0.0
2017-Jul-13 19:30N 59°11' E 010°57'0 0.0
2017-Jul-13 19:00N 59°11' E 010°57'0 0.0
2017-Jul-13 18:30N 59°11' E 010°57'0 0.0
2017-Jul-13 18:00N 59°11' E 010°57'0 0.0
2017-Jul-13 17:30N 59°11' E 010°57'0 0.0
2017-Jul-13 17:00N 59°11' E 010°57'  

Dump ship's entire track history